Time,TemperatureF,DewpointF,PressureIn,WindDirection,WindDirectionDegrees,WindSpeedMPH,WindSpeedGustMPH,Humidity,HourlyPrecipIn,Conditions,Clouds,dailyrainin,SoftwareType,DateUTC
2013-09-05 00:03:00,75.2,64.7,30.07,SE,134,2.4,4.6,70,0.00,OVC,SKC,0.00,WeatherDisplay:10.37,2013-09-05 05:03:00,
2013-09-05 00:08:00,75.1,64.6,30.07,ESE,110,0.7,2.3,70,0.00,OVC,SKC,0.00,WeatherDisplay:10.37,2013-09-05 05:08:00,
2013-09-05 00:13:00,75.1,65.1,30.07,East,97,0.0,0.0,71,0.00,OVC,SKC,0.00,WeatherDisplay:10.37,2013-09-05 05:13:00,
2013-09-05 00:18:00,74.9,64.5,30.06,South,188,1.7,3.5,70,0.00,OVC,SKC,0.00,WeatherDisplay:10.37,2013-09-05 05:18:00,
2013-09-05 00:23:00,74.8,64.4,30.06,SE,131,1.0,2.3,70,0.00,OVC,SKC,0.00,WeatherDisplay:10.37,2013-09-05 05:23:00,
2013-09-05 00:28:00,74.8,64.4,30.06,ESE,115,1.1,2.3,70,0.00,OVC,SKC,0.00,WeatherDisplay:10.37,2013-09-05 05:28:00,
2013-09-05 00:33:00,74.8,64.4,30.06,SSE,150,0.0,0.0,70,0.00,OVC,SKC,0.00,WeatherDisplay:10.37,2013-09-05 05:33:00,
2013-09-05 00:38:00,74.7,64.3,30.06,ESE,111,1.8,3.5,70,0.00,OVC,SKC,0.00,WeatherDisplay:10.37,2013-09-05 05:38:00,
2013-09-05 00:43:00,74.7,64.3,30.06,SE,135,0.4,3.5,70,0.00,BKN,SKC,0.00,WeatherDisplay:10.37,2013-09-05 05:43:00,
2013-09-05 00:48:00,74.6,64.6,30.06,SE,129,0.2,2.3,71,0.00,BKN,SKC,0.00,WeatherDisplay:10.37,2013-09-05 05:48:00,
2013-09-05 00:53:00,74.5,64.1,30.07,SE,131,1.8,2.3,70,0.00,BKN,SKC,0.00,WeatherDisplay:10.37,2013-09-05 05:53:00,
2013-09-05 00:58:00,74.4,64.4,30.07,SE,146,1.7,2.3,71,0.00,BKN,SKC,0.00,WeatherDisplay:10.37,2013-09-05 05:58:00,
2013-09-05 01:03:00,74.3,63.9,30.07,SE,124,1.8,3.5,70,0.00,OVC,SKC,0.00,WeatherDisplay:10.37,2013-09-05 06:03:00,
2013-09-05 01:08:00,74.3,63.9,30.07,ESE,111,1.9,3.5,70,0.00,OVC,SKC,0.00,WeatherDisplay:10.37,2013-09-05 06:08:00,
2013-09-05 01:13:00,74.3,63.9,30.07,East,87,2.0,3.5,70,0.00,OVC,SKC,0.00,WeatherDisplay:10.37,2013-09-05 06:13:00,
2013-09-05 01:18:00,74.3,63.9,30.07,ESE,115,2.2,3.5,70,0.00,OVC,SKC,0.00,WeatherDisplay:10.37,2013-09-05 06:18:00,
2013-09-05 01:23:00,74.2,63.8,30.07,SE,136,0.7,4.0,70,0.00,OVC,SKC,0.00,WeatherDisplay:10.37,2013-09-05 06:23:00,
2013-09-05 01:28:00,74.2,63.8,30.07,SE,134,2.8,3.5,70,0.00,OVC,SKC,0.00,WeatherDisplay:10.37,2013-09-05 06:28:00,
2013-09-05 01:33:00,74.2,63.8,30.07,ESE,109,1.8,2.3,70,0.00,OVC,SKC,0.00,WeatherDisplay:10.37,2013-09-05 06:33:00,
2013-09-05 01:38:00,74.1,63.7,30.07,SE,145,1.6,2.3,70,0.00,OVC,SKC,0.00,WeatherDisplay:10.37,2013-09-05 06:38:00,
2013-09-05 01:43:00,74.0,63.6,30.07,SE,138,1.0,3.5,70,0.00,BKN,SKC,0.00,WeatherDisplay:10.37,2013-09-05 06:43:00,
2013-09-05 01:48:00,73.9,63.9,30.07,SE,146,0.4,3.5,71,0.00,BKN,SKC,0.00,WeatherDisplay:10.37,2013-09-05 06:48:00,
2013-09-05 01:53:00,73.7,63.7,30.07,ESE,123,1.1,4.0,71,0.00,BKN,SKC,0.00,WeatherDisplay:10.37,2013-09-05 06:53:00,
2013-09-05 01:58:00,73.6,63.6,30.07,South,174,1.7,1.7,71,0.00,BKN,SKC,0.00,WeatherDisplay:10.37,2013-09-05 06:58:00,
2013-09-05 02:03:00,73.5,63.5,30.07,SSE,149,0.2,1.1,71,0.00,BKN,SKC,0.00,WeatherDisplay:10.37,2013-09-05 07:03:00,
2013-09-05 02:08:00,73.4,63.4,30.08,SE,127,0.0,1.1,71,0.00,BKN,SKC,0.00,WeatherDisplay:10.37,2013-09-05 07:08:00,
2013-09-05 02:13:00,73.3,63.3,30.07,ESE,118,0.3,2.3,71,0.00,BKN,SKC,0.00,WeatherDisplay:10.37,2013-09-05 07:13:00,
2013-09-05 02:18:00,73.3,63.7,30.07,ESE,118,0.0,0.0,72,0.00,BKN,SKC,0.00,WeatherDisplay:10.37,2013-09-05 07:18:00,
2013-09-05 02:23:00,73.3,63.7,30.07,SSE,160,0.3,2.0,72,0.00,OVC,SKC,0.00,WeatherDisplay:10.37,2013-09-05 07:23:00,
2013-09-05 02:28:00,73.2,63.2,30.07,SSW,194,2.6,3.5,71,0.00,OVC,SKC,0.00,WeatherDisplay:10.37,2013-09-05 07:28:00,
2013-09-05 02:33:00,73.1,63.5,30.07,South,172,1.3,3.5,72,0.00,OVC,SKC,0.00,WeatherDisplay:10.37,2013-09-05 07:33:00,
2013-09-05 02:38:00,73.1,63.5,30.07,SW,221,1.7,3.5,72,0.00,OVC,SKC,0.00,WeatherDisplay:10.37,2013-09-05 07:38:00,
2013-09-05 02:43:00,73.1,63.5,30.07,SE,145,2.4,3.5,72,0.00,OVC,SKC,0.00,WeatherDisplay:10.37,2013-09-05 07:43:00,
2013-09-05 02:48:00,73.1,63.5,30.07,SE,125,1.1,2.3,72,0.00,OVC,SKC,0.00,WeatherDisplay:10.37,2013-09-05 07:48:00,
2013-09-05 02:53:00,73.1,63.5,30.07,SSE,162,1.8,3.5,72,0.00,OVC,SKC,0.00,WeatherDisplay:10.37,2013-09-05 07:53:00,
2013-09-05 02:58:00,73.1,63.5,30.07,SE,135,1.1,3.5,72,0.00,OVC,SKC,0.00,WeatherDisplay:10.37,2013-09-05 07:58:00,
2013-09-05 03:03:00,73.1,63.5,30.07,SE,142,2.0,4.6,72,0.00,OVC,SKC,0.00,WeatherDisplay:10.37,2013-09-05 08:03:00,
2013-09-05 03:08:00,73.1,63.5,30.07,SSW,195,0.3,1.1,72,0.00,OVC,SKC,0.00,WeatherDisplay:10.37,2013-09-05 08:08:00,
2013-09-05 03:13:00,73.0,63.4,30.07,SSE,148,2.7,3.5,72,0.00,OVC,SKC,0.00,WeatherDisplay:10.37,2013-09-05 08:13:00,
2013-09-05 03:18:00,72.9,63.7,30.07,SSW,194,1.3,3.5,73,0.00,OVC,SKC,0.00,WeatherDisplay:10.37,2013-09-05 08:18:00,
2013-09-05 03:23:00,72.9,63.7,30.07,SSE,158,0.6,2.3,73,0.00,OVC,SKC,0.00,WeatherDisplay:10.37,2013-09-05 08:23:00,
2013-09-05 03:28:00,72.8,64.0,30.07,SE,146,0.0,1.1,74,0.00,OVC,SKC,0.00,WeatherDisplay:10.37,2013-09-05 08:28:00,
2013-09-05 03:33:00,72.7,63.9,30.08,SSW,201,0.0,0.0,74,0.00,OVC,SKC,0.00,WeatherDisplay:10.37,2013-09-05 08:33:00,
2013-09-05 03:38:00,72.7,63.9,30.08,SSE,149,0.0,0.0,74,0.00,OVC,SKC,0.00,WeatherDisplay:10.37,2013-09-05 08:38:00,
2013-09-05 03:43:00,72.7,63.9,30.08,SE,139,0.0,0.0,74,0.00,OVC,SKC,0.00,WeatherDisplay:10.37,2013-09-05 08:43:00,
2013-09-05 03:48:00,72.6,63.8,30.09,SE,140,0.0,0.0,74,0.00,OVC,SKC,0.00,WeatherDisplay:10.37,2013-09-05 08:48:00,
2013-09-05 03:53:00,72.4,64.0,30.10,SE,139,0.0,0.0,75,0.00,OVC,SKC,0.00,WeatherDisplay:10.37,2013-09-05 08:53:00,
2013-09-05 03:58:00,72.3,63.9,30.10,WSW,244,0.0,0.0,75,0.00,OVC,SKC,0.00,WeatherDisplay:10.37,2013-09-05 08:58:00,
2013-09-05 04:03:00,72.2,63.8,30.10,WSW,244,0.0,0.0,75,0.00,OVC,SKC,0.00,WeatherDisplay:10.37,2013-09-05 09:03:00,
2013-09-05 04:08:00,72.1,63.7,30.10,East,86,0.7,2.3,75,0.00,OVC,SKC,0.00,WeatherDisplay:10.37,2013-09-05 09:08:00,
2013-09-05 04:13:00,72.3,63.9,30.09,SE,128,1.8,2.3,75,0.00,OVC,SKC,0.00,WeatherDisplay:10.37,2013-09-05 09:13:00,
2013-09-05 04:18:00,72.3,63.9,30.08,SE,134,2.1,3.5,75,0.00,OVC,SKC,0.00,WeatherDisplay:10.37,2013-09-05 09:18:00,
2013-09-05 04:23:00,72.3,63.9,30.08,ESE,113,1.1,2.3,75,0.00,-RA,SKC,0.00,WeatherDisplay:10.37,2013-09-05 09:23:00,
2013-09-05 04:28:00,72.4,64.0,30.08,ESE,117,1.0,2.3,75,0.00,-RA,SKC,0.00,WeatherDisplay:10.37,2013-09-05 09:28:00,
2013-09-05 04:33:00,72.4,64.4,30.08,East,84,0.9,2.0,76,0.00,-RA,SKC,0.00,WeatherDisplay:10.37,2013-09-05 09:33:00,
2013-09-05 04:38:00,72.2,64.6,30.08,SE,124,1.2,2.0,77,0.00,-RA,SKC,0.00,WeatherDisplay:10.37,2013-09-05 09:38:00,
2013-09-05 04:43:00,71.8,64.6,30.08,SSW,201,0.0,0.0,78,0.00,SCT,SKC,0.00,WeatherDisplay:10.37,2013-09-05 09:43:00,
2013-09-05 04:48:00,71.4,64.9,30.08,South,184,0.0,0.0,80,0.00,SCT,SKC,0.00,WeatherDisplay:10.37,2013-09-05 09:48:00,
2013-09-05 04:53:00,71.1,65.0,30.08,SSE,157,0.1,2.0,81,0.00,SCT,SKC,0.00,WeatherDisplay:10.37,2013-09-05 09:53:00,
2013-09-05 04:59:00,71.0,64.5,30.07,SSW,194,1.4,3.5,80,0.00,SCT,SKC,0.00,WeatherDisplay:10.37,2013-09-05 09:59:00,
2013-09-05 05:04:00,70.9,64.4,30.07,SSE,167,1.4,2.3,80,0.00,OVC,SKC,0.00,WeatherDisplay:10.37,2013-09-05 10:04:00,
2013-09-05 05:09:00,70.9,64.4,30.07,SW,217,0.5,2.3,80,0.00,OVC,SKC,0.00,WeatherDisplay:10.37,2013-09-05 10:09:00,
2013-09-05 05:14:00,71.0,64.5,30.07,SW,217,0.3,2.3,80,0.00,OVC,SKC,0.00,WeatherDisplay:10.37,2013-09-05 10:14:00,
2013-09-05 05:19:00,71.0,64.5,30.08,WSW,248,0.2,1.1,80,0.02,RA,SKC,0.02,WeatherDisplay:10.37,2013-09-05 10:19:00,
2013-09-05 05:24:00,70.7,64.9,30.07,SE,128,1.7,4.0,82,0.03,RA,SKC,0.03,WeatherDisplay:10.37,2013-09-05 10:24:00,
2013-09-05 05:29:00,70.2,65.1,30.07,SE,129,2.5,3.5,84,0.03,RA,SKC,0.03,WeatherDisplay:10.37,2013-09-05 10:29:00,
2013-09-05 05:34:00,69.9,64.8,30.08,ENE,68,2.1,3.5,84,0.03,OVC,SKC,0.03,WeatherDisplay:10.37,2013-09-05 10:34:00,
2013-09-05 05:39:00,69.7,65.0,30.09,NNW,337,1.1,3.5,85,0.03,OVC,SKC,0.03,WeatherDisplay:10.37,2013-09-05 10:39:00,
2013-09-05 05:44:00,69.3,65.3,30.10,WNW,303,0.0,0.0,87,0.03,OVC,SKC,0.03,WeatherDisplay:10.37,2013-09-05 10:44:00,
2013-09-05 05:49:00,68.9,65.2,30.11,NNW,343,0.0,1.1,88,0.03,OVC,SKC,0.03,WeatherDisplay:10.37,2013-09-05 10:49:00,
2013-09-05 05:54:00,68.9,65.8,30.10,SSE,156,1.0,2.0,90,0.03,OVC,SKC,0.03,WeatherDisplay:10.37,2013-09-05 10:54:00,
2013-09-05 05:59:00,68.9,65.8,30.09,SSE,167,0.0,0.0,90,0.03,OVC,SKC,0.03,WeatherDisplay:10.37,2013-09-05 10:59:00,
2013-09-05 06:04:00,68.7,65.6,30.09,SE,125,1.8,2.3,90,0.03,OVC,SKC,0.03,WeatherDisplay:10.37,2013-09-05 11:04:00,
2013-09-05 06:09:00,68.7,65.6,30.10,ENE,76,0.0,1.1,90,0.04,RA,SKC,0.04,WeatherDisplay:10.37,2013-09-05 11:09:00,
2013-09-05 06:14:00,68.6,65.9,30.10,NNE,22,0.0,0.0,91,0.05,RA,SKC,0.05,WeatherDisplay:10.37,2013-09-05 11:14:00,
2013-09-05 06:19:00,68.6,66.2,30.11,SE,125,0.0,0.0,92,0.03,RA,SKC,0.05,WeatherDisplay:10.37,2013-09-05 11:19:00,
2013-09-05 06:24:00,68.6,66.5,30.11,SE,126,0.0,0.0,93,0.03,-RA,SKC,0.06,WeatherDisplay:10.37,2013-09-05 11:24:00,
2013-09-05 06:29:00,68.4,66.3,30.12,SE,125,0.0,0.0,93,0.03,-RA,SKC,0.06,WeatherDisplay:10.37,2013-09-05 11:29:00,
2013-09-05 06:34:00,68.1,66.0,30.12,NE,54,0.0,0.0,93,0.03,-RA,SKC,0.06,WeatherDisplay:10.37,2013-09-05 11:34:00,
2013-09-05 06:39:00,68.0,66.2,30.13,NE,50,0.0,0.0,94,0.03,-RA,SKC,0.06,WeatherDisplay:10.37,2013-09-05 11:39:00,
2013-09-05 06:44:00,67.8,66.0,30.13,North,1,0.0,0.0,94,0.03,OVC,SKC,0.06,WeatherDisplay:10.37,2013-09-05 11:44:00,
2013-09-05 06:49:00,67.8,66.0,30.14,North,5,0.0,0.0,94,0.03,OVC,SKC,0.07,WeatherDisplay:10.37,2013-09-05 11:49:00,
2013-09-05 06:54:00,67.8,66.0,30.13,SE,133,0.0,0.0,94,0.05,RA,SKC,0.09,WeatherDisplay:10.37,2013-09-05 11:54:00,
2013-09-05 06:59:00,68.0,66.2,30.14,East,79,0.0,0.0,94,0.06,RA,SKC,0.10,WeatherDisplay:10.37,2013-09-05 11:59:00,
2013-09-05 07:04:00,67.9,66.1,30.14,ENE,72,0.9,2.3,94,0.07,-RA,SKC,0.10,WeatherDisplay:10.37,2013-09-05 12:04:00,
2013-09-05 07:09:00,67.9,66.1,30.14,ENE,62,0.4,3.5,94,0.06,-RA,SKC,0.10,WeatherDisplay:10.37,2013-09-05 12:09:00,
2013-09-05 07:14:00,67.7,65.6,30.13,ESE,105,1.2,2.3,93,0.06,-RA,SKC,0.11,WeatherDisplay:10.37,2013-09-05 12:14:00,
2013-09-05 07:19:00,67.9,65.8,30.12,SE,135,2.7,4.0,93,0.06,-RA,SKC,0.11,WeatherDisplay:10.37,2013-09-05 12:19:00,
2013-09-05 07:24:00,67.9,65.8,30.13,ESE,105,0.5,3.5,93,0.05,-RA,SKC,0.11,WeatherDisplay:10.37,2013-09-05 12:24:00,
2013-09-05 07:29:00,67.9,65.5,30.13,SE,135,2.8,3.5,92,0.05,-RA,SKC,0.11,WeatherDisplay:10.37,2013-09-05 12:29:00,
2013-09-05 07:34:00,68.0,65.6,30.13,East,100,1.4,2.3,92,0.05,-RA,SKC,0.11,WeatherDisplay:10.37,2013-09-05 12:34:00,
2013-09-05 07:39:00,68.0,65.6,30.14,East,101,2.6,3.5,92,0.05,-RA,SKC,0.11,WeatherDisplay:10.37,2013-09-05 12:39:00,
2013-09-05 07:44:00,68.0,65.6,30.14,SE,126,0.0,0.0,92,0.05,OVC,SKC,0.11,WeatherDisplay:10.37,2013-09-05 12:44:00,
2013-09-05 07:49:00,68.2,65.5,30.14,ENE,71,1.2,3.5,91,0.05,OVC,SKC,0.11,WeatherDisplay:10.37,2013-09-05 12:49:00,
2013-09-05 07:54:00,68.1,65.4,30.14,ENE,77,3.3,3.5,91,0.03,OVC,SKC,0.11,WeatherDisplay:10.37,2013-09-05 12:54:00,
2013-09-05 07:59:00,68.1,65.1,30.14,ESE,119,2.3,4.6,90,0.02,OVC,SKC,0.11,WeatherDisplay:10.37,2013-09-05 12:59:00,
2013-09-05 08:04:00,68.0,65.3,30.13,East,98,0.7,2.3,91,0.01,OVC,SKC,0.11,WeatherDisplay:10.37,2013-09-05 13:04:00,
2013-09-05 08:09:00,67.9,65.2,30.13,East,101,1.7,4.0,91,0.01,OVC,SKC,0.11,WeatherDisplay:10.37,2013-09-05 13:09:00,
2013-09-05 08:14:00,68.0,65.3,30.13,East,96,0.6,2.0,91,0.00,OVC,SKC,0.11,WeatherDisplay:10.37,2013-09-05 13:14:00,
2013-09-05 08:19:00,68.0,65.3,30.12,SE,133,0.6,3.5,91,0.00,OVC,SKC,0.11,WeatherDisplay:10.37,2013-09-05 13:19:00,
2013-09-05 08:24:00,68.1,65.1,30.12,East,90,3.0,4.6,90,0.00,OVC,SKC,0.11,WeatherDisplay:10.37,2013-09-05 13:24:00,
2013-09-05 08:29:00,68.1,65.1,30.13,ENE,63,2.9,3.5,90,0.00,OVC,SKC,0.11,WeatherDisplay:10.37,2013-09-05 13:29:00,
2013-09-05 08:34:00,68.2,65.2,30.13,ESE,115,2.2,3.5,90,0.00,OVC,SKC,0.11,WeatherDisplay:10.37,2013-09-05 13:34:00,
2013-09-05 08:39:00,68.4,65.0,30.12,East,93,2.2,4.0,89,0.00,OVC,SKC,0.11,WeatherDisplay:10.37,2013-09-05 13:39:00,
2013-09-05 08:44:00,68.4,65.4,30.12,ESE,110,1.2,2.3,90,0.00,BKN,SKC,0.11,WeatherDisplay:10.37,2013-09-05 13:44:00,
2013-09-05 08:49:00,68.5,64.8,30.12,SE,139,1.9,3.5,88,0.00,BKN,SKC,0.11,WeatherDisplay:10.37,2013-09-05 13:49:00,
2013-09-05 08:54:00,68.6,64.9,30.12,East,90,2.9,3.5,88,0.00,BKN,SKC,0.11,WeatherDisplay:10.37,2013-09-05 13:54:00,
2013-09-05 08:59:00,68.6,65.2,30.11,ESE,121,2.4,4.0,89,0.00,BKN,SKC,0.11,WeatherDisplay:10.37,2013-09-05 13:59:00,
2013-09-05 09:04:00,68.7,65.0,30.12,SE,136,2.2,4.0,88,0.00,OVC,SKC,0.11,WeatherDisplay:10.37,2013-09-05 14:04:00,
2013-09-05 09:09:00,69.0,65.0,30.12,ESE,118,3.0,4.6,87,0.00,OVC,SKC,0.11,WeatherDisplay:10.37,2013-09-05 14:09:00,
2013-09-05 09:14:00,69.1,65.1,30.12,ENE,65,3.5,6.0,87,0.00,OVC,SKC,0.11,WeatherDisplay:10.37,2013-09-05 14:14:00,
2013-09-05 09:19:00,69.2,65.2,30.12,ESE,107,3.9,5.8,87,0.00,OVC,SKC,0.11,WeatherDisplay:10.37,2013-09-05 14:19:00,
2013-09-05 09:24:00,69.2,65.2,30.12,ESE,115,3.4,4.6,87,0.00,OVC,SKC,0.11,WeatherDisplay:10.37,2013-09-05 14:24:00,
2013-09-05 09:29:00,69.3,65.3,30.12,SE,131,4.6,6.9,87,0.00,OVC,SKC,0.11,WeatherDisplay:10.37,2013-09-05 14:29:00,
2013-09-05 09:34:00,69.4,65.4,30.13,East,92,0.9,4.6,87,0.00,OVC,SKC,0.11,WeatherDisplay:10.37,2013-09-05 14:34:00,
2013-09-05 09:39:00,69.6,65.6,30.13,East,86,1.6,3.5,87,0.00,OVC,SKC,0.11,WeatherDisplay:10.37,2013-09-05 14:39:00,
2013-09-05 09:44:00,69.7,65.3,30.13,SE,127,2.8,3.5,86,0.00,BKN,SKC,0.11,WeatherDisplay:10.37,2013-09-05 14:44:00,
2013-09-05 09:49:00,69.8,65.4,30.13,ESE,109,2.6,3.5,86,0.00,BKN,SKC,0.11,WeatherDisplay:10.37,2013-09-05 14:49:00,
2013-09-05 09:54:00,69.9,65.2,30.13,SE,134,3.5,4.6,85,0.00,BKN,SKC,0.11,WeatherDisplay:10.37,2013-09-05 14:54:00,
2013-09-05 09:59:00,70.1,65.0,30.12,ESE,114,2.5,4.0,84,0.00,BKN,SKC,0.11,WeatherDisplay:10.37,2013-09-05 14:59:00,
2013-09-05 10:04:00,70.6,64.8,30.13,ESE,103,3.1,5.0,82,0.00,BKN,SKC,0.11,WeatherDisplay:10.37,2013-09-05 15:04:00,
2013-09-05 10:09:00,71.4,64.9,30.13,ESE,104,4.0,4.6,80,0.00,BKN,SKC,0.11,WeatherDisplay:10.37,2013-09-05 15:09:00,
2013-09-05 10:14:00,72.2,65.3,30.13,ESE,118,2.8,5.8,79,0.00,BKN,SKC,0.11,WeatherDisplay:10.37,2013-09-05 15:14:00,
2013-09-05 10:19:00,73.3,65.3,30.12,SE,135,3.4,5.8,76,0.00,BKN,SKC,0.11,WeatherDisplay:10.37,2013-09-05 15:19:00,
2013-09-05 10:24:00,74.1,65.3,30.12,ESE,107,3.0,3.5,74,0.00,CLR,SKC,0.11,WeatherDisplay:10.37,2013-09-05 15:24:00,
2013-09-05 10:29:00,74.6,65.0,30.12,SSE,162,2.4,6.0,72,0.00,CLR,SKC,0.11,WeatherDisplay:10.37,2013-09-05 15:29:00,
2013-09-05 10:34:00,74.7,64.7,30.12,SE,132,3.9,5.8,71,0.00,CLR,SKC,0.11,WeatherDisplay:10.37,2013-09-05 15:34:00,
2013-09-05 10:39:00,74.7,65.5,30.12,South,190,1.8,3.5,73,0.00,CLR,SKC,0.11,WeatherDisplay:10.37,2013-09-05 15:39:00,
2013-09-05 10:44:00,74.7,65.5,30.11,SSE,150,1.7,2.3,73,0.00,BKN,SKC,0.11,WeatherDisplay:10.37,2013-09-05 15:44:00,
2013-09-05 10:49:00,74.9,66.1,30.12,East,96,2.1,4.0,74,0.00,BKN,SKC,0.11,WeatherDisplay:10.37,2013-09-05 15:49:00,
2013-09-05 10:55:00,74.5,65.7,30.12,ENE,78,4.3,4.6,74,0.00,BKN,SKC,0.11,WeatherDisplay:10.37,2013-09-05 15:55:00,
2013-09-05 11:00:00,74.4,66.0,30.12,ESE,111,5.0,6.9,75,0.00,BKN,SKC,0.11,WeatherDisplay:10.37,2013-09-05 16:00:00,
2013-09-05 11:05:00,74.4,66.0,30.12,ESE,105,4.5,7.0,75,0.00,OVC,SKC,0.11,WeatherDisplay:10.37,2013-09-05 16:05:00,
2013-09-05 11:10:00,74.2,65.4,30.12,ENE,65,4.7,6.9,74,0.00,OVC,SKC,0.11,WeatherDisplay:10.37,2013-09-05 16:10:00,
2013-09-05 11:15:00,74.5,65.7,30.12,SE,136,3.3,6.9,74,0.00,OVC,SKC,0.11,WeatherDisplay:10.37,2013-09-05 16:15:00,
2013-09-05 11:20:00,74.9,66.1,30.12,SE,138,4.6,6.0,74,0.00,OVC,SKC,0.11,WeatherDisplay:10.37,2013-09-05 16:20:00,
2013-09-05 11:25:00,74.8,66.0,30.12,ESE,114,3.5,4.6,74,0.00,OVC,SKC,0.11,WeatherDisplay:10.37,2013-09-05 16:25:00,
2013-09-05 11:30:00,75.4,66.1,30.12,ESE,113,2.3,3.5,73,0.00,OVC,SKC,0.11,WeatherDisplay:10.37,2013-09-05 16:30:00,
2013-09-05 11:35:00,75.9,65.4,30.12,SE,131,3.6,4.6,70,0.00,OVC,SKC,0.11,WeatherDisplay:10.37,2013-09-05 16:35:00,
2013-09-05 11:40:00,76.4,65.1,30.12,South,172,4.0,6.9,68,0.00,OVC,SKC,0.11,WeatherDisplay:10.37,2013-09-05 16:40:00,
2013-09-05 11:45:00,76.9,64.7,30.12,East,79,4.8,9.2,66,0.00,OVC,SKC,0.11,WeatherDisplay:10.37,2013-09-05 16:45:00,
2013-09-05 11:50:00,77.4,65.1,30.11,SE,142,4.0,8.0,66,0.00,OVC,SKC,0.11,WeatherDisplay:10.37,2013-09-05 16:50:00,
2013-09-05 11:55:00,78.3,66.0,30.11,SSE,168,1.9,4.6,66,0.00,OVC,SKC,0.11,WeatherDisplay:10.37,2013-09-05 16:55:00,
2013-09-05 12:00:00,79.3,65.1,30.11,SW,214,4.6,5.0,62,0.00,OVC,SKC,0.11,WeatherDisplay:10.37,2013-09-05 17:00:00,
2013-09-05 12:05:00,79.9,65.7,30.11,SSE,155,3.1,3.5,62,0.00,SCT,SKC,0.11,WeatherDisplay:10.37,2013-09-05 17:05:00,
2013-09-05 12:10:00,80.3,66.1,30.11,SW,222,4.4,5.8,62,0.00,SCT,SKC,0.11,WeatherDisplay:10.37,2013-09-05 17:10:00,
2013-09-05 12:15:00,80.4,65.7,30.11,South,181,4.1,10.4,61,0.00,SCT,SKC,0.11,WeatherDisplay:10.37,2013-09-05 17:15:00,
2013-09-05 12:20:00,80.8,67.0,30.11,South,169,3.1,5.8,63,0.00,SCT,SKC,0.11,WeatherDisplay:10.37,2013-09-05 17:20:00,
2013-09-05 12:25:00,81.3,67.0,30.11,SE,141,1.3,2.3,62,0.00,BKN,SKC,0.11,WeatherDisplay:10.37,2013-09-05 17:25:00,
2013-09-05 12:30:00,81.6,64.4,30.11,SSE,164,5.2,6.9,56,0.00,BKN,SKC,0.11,WeatherDisplay:10.37,2013-09-05 17:30:00,
2013-09-05 12:35:00,81.1,64.4,30.11,ESE,121,5.4,5.4,57,0.00,BKN,SKC,0.11,WeatherDisplay:10.37,2013-09-05 17:35:00,
2013-09-05 12:40:00,80.7,64.5,30.11,SW,215,2.6,4.6,58,0.00,BKN,SKC,0.11,WeatherDisplay:10.37,2013-09-05 17:40:00,
2013-09-05 12:45:00,80.6,64.9,30.11,ESE,120,2.6,3.5,59,0.00,BKN,SKC,0.11,WeatherDisplay:10.37,2013-09-05 17:45:00,
2013-09-05 12:50:00,80.7,65.0,30.11,South,179,4.2,5.0,59,0.00,BKN,SKC,0.11,WeatherDisplay:10.37,2013-09-05 17:50:00,
2013-09-05 12:55:00,81.4,66.7,30.11,ESE,110,2.2,3.5,61,0.00,BKN,SKC,0.11,WeatherDisplay:10.37,2013-09-05 17:55:00,
2013-09-05 13:00:00,81.5,65.8,30.11,ESE,110,3.3,10.4,59,0.00,BKN,SKC,0.11,WeatherDisplay:10.37,2013-09-05 18:00:00,
2013-09-05 13:05:00,81.2,65.0,30.11,SE,134,5.6,8.0,58,0.00,SCT,SKC,0.11,WeatherDisplay:10.37,2013-09-05 18:05:00,
2013-09-05 13:10:00,80.8,63.6,30.11,ESE,121,6.3,9.0,56,0.00,SCT,SKC,0.11,WeatherDisplay:10.37,2013-09-05 18:10:00,
2013-09-05 13:15:00,80.7,62.5,30.11,SE,135,6.5,8.1,54,0.00,SCT,SKC,0.11,WeatherDisplay:10.37,2013-09-05 18:15:00,
2013-09-05 13:20:00,80.7,63.0,30.11,South,186,6.1,11.5,55,0.00,SCT,SKC,0.11,WeatherDisplay:10.37,2013-09-05 18:20:00,
2013-09-05 13:25:00,80.5,62.8,30.11,SSW,200,4.0,7.0,55,0.00,BKN,SKC,0.11,WeatherDisplay:10.37,2013-09-05 18:25:00,
2013-09-05 13:30:00,80.5,62.8,30.11,SSE,156,5.5,10.4,55,0.00,BKN,SKC,0.11,WeatherDisplay:10.37,2013-09-05 18:30:00,
2013-09-05 13:35:00,80.3,63.2,30.10,SSE,148,3.2,5.8,56,0.00,BKN,SKC,0.11,WeatherDisplay:10.37,2013-09-05 18:35:00,
2013-09-05 13:40:00,80.3,64.2,30.10,ESE,110,2.1,3.5,58,0.00,BKN,SKC,0.11,WeatherDisplay:10.37,2013-09-05 18:40:00,
2013-09-05 13:45:00,80.2,65.1,30.10,SSE,150,5.0,9.0,60,0.00,OVC,SKC,0.11,WeatherDisplay:10.37,2013-09-05 18:45:00,
2013-09-05 13:50:00,80.1,65.0,30.10,SE,139,3.1,6.0,60,0.00,OVC,SKC,0.11,WeatherDisplay:10.37,2013-09-05 18:50:00,
2013-09-05 13:55:00,79.6,64.5,30.10,ESE,120,5.5,8.1,60,0.00,OVC,SKC,0.11,WeatherDisplay:10.37,2013-09-05 18:55:00,
2013-09-05 14:00:00,79.4,64.8,30.10,ESE,123,3.0,9.0,61,0.00,OVC,SKC,0.11,WeatherDisplay:10.37,2013-09-05 19:00:00,
2013-09-05 14:05:00,78.9,67.0,30.09,ESE,108,2.5,4.0,67,0.00,OVC,SKC,0.11,WeatherDisplay:10.37,2013-09-05 19:05:00,
2013-09-05 14:10:00,78.7,66.8,30.09,East,94,3.1,4.0,67,0.00,OVC,SKC,0.11,WeatherDisplay:10.37,2013-09-05 19:10:00,
2013-09-05 14:15:00,78.4,67.0,30.09,ENE,60,2.3,3.5,68,0.00,OVC,SKC,0.11,WeatherDisplay:10.37,2013-09-05 19:15:00,
2013-09-05 14:20:00,78.2,66.8,30.09,East,101,3.5,5.8,68,0.00,OVC,SKC,0.11,WeatherDisplay:10.37,2013-09-05 19:20:00,
2013-09-05 14:25:00,78.1,66.7,30.08,SE,127,6.0,7.0,68,0.00,OVC,SKC,0.11,WeatherDisplay:10.37,2013-09-05 19:25:00,
2013-09-05 14:30:00,78.0,66.6,30.09,ENE,72,2.9,3.5,68,0.00,OVC,SKC,0.11,WeatherDisplay:10.37,2013-09-05 19:30:00,
2013-09-05 14:35:00,78.1,67.5,30.09,ENE,70,6.3,6.3,70,0.00,OVC,SKC,0.11,WeatherDisplay:10.37,2013-09-05 19:35:00,
2013-09-05 14:40:00,78.5,67.9,30.09,ENE,62,4.8,6.9,70,0.00,OVC,SKC,0.11,WeatherDisplay:10.37,2013-09-05 19:40:00,
2013-09-05 14:45:00,78.6,67.2,30.10,East,97,6.8,8.1,68,0.00,BKN,SKC,0.11,WeatherDisplay:10.37,2013-09-05 19:45:00,
2013-09-05 14:50:00,78.3,67.3,30.09,ESE,115,6.0,6.0,69,0.00,BKN,SKC,0.11,WeatherDisplay:10.37,2013-09-05 19:50:00,
2013-09-05 14:55:00,78.7,67.7,30.09,East,79,2.3,4.6,69,0.00,BKN,SKC,0.11,WeatherDisplay:10.37,2013-09-05 19:55:00,
2013-09-05 15:00:00,78.8,67.3,30.09,ENE,68,4.5,9.2,68,0.00,BKN,SKC,0.11,WeatherDisplay:10.37,2013-09-05 20:00:00,
2013-09-05 15:05:00,79.0,68.4,30.08,SE,128,2.6,4.6,70,0.00,SCT,SKC,0.11,WeatherDisplay:10.37,2013-09-05 20:05:00,
2013-09-05 15:10:00,79.4,67.5,30.08,SE,131,4.7,5.8,67,0.00,SCT,SKC,0.11,WeatherDisplay:10.37,2013-09-05 20:10:00,
2013-09-05 15:15:00,79.5,68.0,30.07,ESE,122,4.9,6.9,68,0.00,SCT,SKC,0.11,WeatherDisplay:10.37,2013-09-05 20:15:00,
2013-09-05 15:20:00,79.5,67.6,30.07,ESE,113,6.0,10.4,67,0.00,SCT,SKC,0.11,WeatherDisplay:10.37,2013-09-05 20:20:00,
2013-09-05 15:25:00,79.9,68.0,30.07,SE,136,4.5,6.9,67,0.00,CLR,SKC,0.11,WeatherDisplay:10.37,2013-09-05 20:25:00,
2013-09-05 15:30:00,80.4,67.6,30.07,ESE,117,4.0,6.9,65,0.00,CLR,SKC,0.11,WeatherDisplay:10.37,2013-09-05 20:30:00,
2013-09-05 15:35:00,80.5,66.7,30.07,SE,127,5.6,8.1,63,0.00,CLR,SKC,0.11,WeatherDisplay:10.37,2013-09-05 20:35:00,
2013-09-05 15:40:00,80.6,66.4,30.06,SE,138,3.8,10.4,62,0.00,CLR,SKC,0.11,WeatherDisplay:10.37,2013-09-05 20:40:00,
2013-09-05 15:45:00,81.0,66.8,30.06,ESE,102,3.0,6.0,62,0.00,CLR,SKC,0.11,WeatherDisplay:10.37,2013-09-05 20:45:00,
2013-09-05 15:50:00,81.1,66.4,30.06,SE,131,5.1,9.2,61,0.00,CLR,SKC,0.11,WeatherDisplay:10.37,2013-09-05 20:50:00,
2013-09-05 15:55:00,80.9,65.2,30.06,ESE,118,6.5,9.2,59,0.00,CLR,SKC,0.11,WeatherDisplay:10.37,2013-09-05 20:55:00,
2013-09-05 16:00:00,81.0,65.8,30.05,SE,134,4.4,5.8,60,0.00,CLR,SKC,0.11,WeatherDisplay:10.37,2013-09-05 21:00:00,
2013-09-05 16:05:00,80.8,66.1,30.05,SE,142,6.8,10.4,61,0.00,CLR,SKC,0.11,WeatherDisplay:10.37,2013-09-05 21:05:00,
2013-09-05 16:10:00,80.6,65.9,30.05,SE,131,7.6,9.2,61,0.00,CLR,SKC,0.11,WeatherDisplay:10.37,2013-09-05 21:10:00,
2013-09-05 16:15:00,80.6,65.9,30.05,SSE,153,6.2,9.2,61,0.00,CLR,SKC,0.11,WeatherDisplay:10.37,2013-09-05 21:15:00,
2013-09-05 16:20:00,80.5,65.8,30.05,ESE,115,4.9,8.1,61,0.00,CLR,SKC,0.11,WeatherDisplay:10.37,2013-09-05 21:20:00,
2013-09-05 16:25:00,80.5,66.3,30.05,East,91,6.3,9.2,62,0.00,CLR,SKC,0.11,WeatherDisplay:10.37,2013-09-05 21:25:00,
2013-09-05 16:30:00,80.3,66.1,30.05,ESE,103,6.9,10.0,62,0.00,CLR,SKC,0.11,WeatherDisplay:10.37,2013-09-05 21:30:00,
2013-09-05 16:35:00,80.2,66.0,30.05,SE,129,6.4,9.2,62,0.00,CLR,SKC,0.11,WeatherDisplay:10.37,2013-09-05 21:35:00,
2013-09-05 16:40:00,80.3,66.1,30.06,ESE,105,4.7,6.9,62,0.00,CLR,SKC,0.11,WeatherDisplay:10.37,2013-09-05 21:40:00,
2013-09-05 16:45:00,80.5,66.7,30.06,ESE,108,3.5,5.0,63,0.00,CLR,SKC,0.11,WeatherDisplay:10.37,2013-09-05 21:45:00,
2013-09-05 16:50:00,80.3,67.0,30.05,ESE,122,5.6,6.9,64,0.00,CLR,SKC,0.11,WeatherDisplay:10.37,2013-09-05 21:50:00,
2013-09-05 16:55:00,80.3,67.0,30.06,ENE,66,5.6,9.0,64,0.00,CLR,SKC,0.11,WeatherDisplay:10.37,2013-09-05 21:55:00,
2013-09-05 17:00:00,80.2,67.4,30.05,East,101,5.4,6.9,65,0.00,CLR,SKC,0.11,WeatherDisplay:10.37,2013-09-05 22:00:00,
2013-09-05 17:06:00,80.5,67.6,30.05,East,84,5.2,8.1,65,0.00,CLR,SKC,0.11,WeatherDisplay:10.37,2013-09-05 22:06:00,
2013-09-05 17:10:00,80.8,67.0,30.05,ENE,73,8.2,9.2,63,0.00,CLR,SKC,0.11,WeatherDisplay:10.37,2013-09-05 22:10:00,
2013-09-05 17:16:00,80.7,66.5,30.06,SE,127,9.8,13.8,62,0.00,CLR,SKC,0.11,WeatherDisplay:10.37,2013-09-05 22:16:00,
2013-09-05 17:21:00,81.0,66.8,30.06,ESE,108,5.6,9.2,62,0.00,CLR,SKC,0.11,WeatherDisplay:10.37,2013-09-05 22:21:00,
2013-09-05 17:26:00,81.2,66.9,30.06,SSE,152,4.7,8.1,62,0.00,CLR,SKC,0.11,WeatherDisplay:10.37,2013-09-05 22:26:00,
2013-09-05 17:31:00,81.5,66.8,30.06,SE,124,5.6,8.1,61,0.00,CLR,SKC,0.11,WeatherDisplay:10.37,2013-09-05 22:31:00,
2013-09-05 17:36:00,81.3,66.1,30.06,SE,141,6.2,10.4,60,0.00,CLR,SKC,0.11,WeatherDisplay:10.37,2013-09-05 22:36:00,
2013-09-05 17:41:00,81.2,66.0,30.06,ENE,71,4.9,10.4,60,0.00,CLR,SKC,0.11,WeatherDisplay:10.37,2013-09-05 22:41:00,
2013-09-05 17:46:00,81.3,65.1,30.06,East,91,4.1,6.9,58,0.00,CLR,SKC,0.11,WeatherDisplay:10.37,2013-09-05 22:46:00,
2013-09-05 17:51:00,81.3,65.1,30.06,ESE,103,4.7,9.0,58,0.00,CLR,SKC,0.11,WeatherDisplay:10.37,2013-09-05 22:51:00,
2013-09-05 17:56:00,81.2,65.5,30.07,East,101,3.5,7.0,59,0.00,CLR,SKC,0.11,WeatherDisplay:10.37,2013-09-05 22:56:00,
2013-09-05 18:01:00,81.6,65.4,30.07,ESE,113,3.2,5.0,58,0.00,CLR,SKC,0.11,WeatherDisplay:10.37,2013-09-05 23:01:00,
2013-09-05 18:06:00,81.3,65.6,30.07,East,96,5.5,8.1,59,0.00,CLR,SKC,0.11,WeatherDisplay:10.37,2013-09-05 23:06:00,
2013-09-05 18:11:00,81.1,65.4,30.07,SE,125,5.3,5.8,59,0.00,CLR,SKC,0.11,WeatherDisplay:10.37,2013-09-05 23:11:00,
2013-09-05 18:16:00,81.2,66.0,30.07,SE,140,4.0,6.0,60,0.00,CLR,SKC,0.11,WeatherDisplay:10.37,2013-09-05 23:16:00,
2013-09-05 18:21:00,81.2,66.0,30.07,ESE,110,3.1,4.0,60,0.00,CLR,SKC,0.11,WeatherDisplay:10.37,2013-09-05 23:21:00,
2013-09-05 18:26:00,80.9,66.2,30.07,SSE,150,3.0,3.5,61,0.00,CLR,SKC,0.11,WeatherDisplay:10.37,2013-09-05 23:26:00,
2013-09-05 18:31:00,80.7,66.0,30.07,East,91,2.8,5.8,61,0.00,CLR,SKC,0.11,WeatherDisplay:10.37,2013-09-05 23:31:00,
2013-09-05 18:36:00,80.6,65.9,30.07,SE,130,4.6,6.9,61,0.00,CLR,SKC,0.11,WeatherDisplay:10.37,2013-09-05 23:36:00,
2013-09-05 18:41:00,80.4,66.2,30.07,ESE,123,5.1,6.9,62,0.00,CLR,SKC,0.11,WeatherDisplay:10.37,2013-09-05 23:41:00,
2013-09-05 18:46:00,80.2,66.0,30.06,ESE,103,3.6,6.0,62,0.00,CLR,SKC,0.11,WeatherDisplay:10.37,2013-09-05 23:46:00,
2013-09-05 18:51:00,80.0,65.8,30.06,NE,53,4.2,5.8,62,0.00,CLR,SKC,0.11,WeatherDisplay:10.37,2013-09-05 23:51:00,
2013-09-05 18:56:00,79.9,65.7,30.07,ESE,121,3.4,6.9,62,0.00,CLR,SKC,0.11,WeatherDisplay:10.37,2013-09-05 23:56:00,
2013-09-05 19:01:00,79.7,65.5,30.06,SE,127,2.8,4.0,62,0.00,CLR,SKC,0.11,WeatherDisplay:10.37,2013-09-06 00:01:00,
2013-09-05 19:06:00,79.6,65.4,30.07,SE,146,2.9,4.0,62,0.00,CLR,SKC,0.11,WeatherDisplay:10.37,2013-09-06 00:06:00,
2013-09-05 19:11:00,79.5,65.3,30.07,East,100,1.5,3.5,62,0.00,CLR,SKC,0.11,WeatherDisplay:10.37,2013-09-06 00:11:00,
2013-09-05 19:16:00,79.4,65.2,30.07,ESE,121,2.5,3.5,62,0.00,CLR,SKC,0.11,WeatherDisplay:10.37,2013-09-06 00:16:00,
2013-09-05 19:21:00,79.3,65.1,30.07,ESE,113,0.4,1.1,62,0.00,SCT,SKC,0.11,WeatherDisplay:10.37,2013-09-06 00:21:00,
2013-09-05 19:26:00,79.1,65.4,30.07,East,87,0.0,1.1,63,0.00,SCT,SKC,0.11,WeatherDisplay:10.37,2013-09-06 00:26:00,
2013-09-05 19:31:00,78.9,65.2,30.07,ESE,113,0.8,2.3,63,0.00,SCT,SKC,0.11,WeatherDisplay:10.37,2013-09-06 00:31:00,
2013-09-05 19:36:00,78.8,65.1,30.07,ESE,107,2.2,3.5,63,0.00,SCT,SKC,0.11,WeatherDisplay:10.37,2013-09-06 00:36:00,
2013-09-05 19:41:00,78.6,64.9,30.07,ESE,121,1.5,3.5,63,0.00,CLR,SKC,0.11,WeatherDisplay:10.37,2013-09-06 00:41:00,
2013-09-05 19:46:00,78.5,64.9,30.07,SE,124,1.0,2.3,63,0.00,CLR,SKC,0.11,WeatherDisplay:10.37,2013-09-06 00:46:00,
2013-09-05 19:51:00,78.4,65.2,30.07,ESE,121,0.8,1.1,64,0.00,CLR,SKC,0.11,WeatherDisplay:10.37,2013-09-06 00:51:00,
2013-09-05 19:56:00,78.3,65.1,30.07,East,101,2.4,4.0,64,0.00,CLR,SKC,0.11,WeatherDisplay:10.37,2013-09-06 00:56:00,
2013-09-05 20:01:00,78.0,65.3,30.06,ESE,119,2.4,3.5,65,0.00,SCT,SKC,0.11,WeatherDisplay:10.37,2013-09-06 01:01:00,
2013-09-05 20:06:00,77.7,65.4,30.05,SE,124,2.3,3.5,66,0.00,SCT,SKC,0.11,WeatherDisplay:10.37,2013-09-06 01:06:00,
2013-09-05 20:11:00,77.5,65.7,30.05,SE,130,2.5,3.5,67,0.00,SCT,SKC,0.11,WeatherDisplay:10.37,2013-09-06 01:11:00,
2013-09-05 20:16:00,77.4,65.6,30.05,SE,132,3.0,3.5,67,0.00,SCT,SKC,0.11,WeatherDisplay:10.37,2013-09-06 01:16:00,
2013-09-05 20:21:00,77.4,65.6,30.05,SSE,159,1.9,3.5,67,0.00,SCT,SKC,0.11,WeatherDisplay:10.37,2013-09-06 01:21:00,
2013-09-05 20:26:00,77.2,65.4,30.05,SE,132,2.5,3.5,67,0.00,SCT,SKC,0.11,WeatherDisplay:10.37,2013-09-06 01:26:00,
2013-09-05 20:31:00,77.3,65.5,30.05,SSE,155,1.7,3.5,67,0.00,SCT,SKC,0.11,WeatherDisplay:10.37,2013-09-06 01:31:00,
2013-09-05 20:36:00,77.4,65.1,30.05,ESE,113,2.4,4.0,66,0.00,SCT,SKC,0.11,WeatherDisplay:10.37,2013-09-06 01:36:00,
2013-09-05 20:41:00,77.6,65.3,30.06,NE,53,1.2,3.5,66,0.00,SCT,SKC,0.11,WeatherDisplay:10.37,2013-09-06 01:41:00,
2013-09-05 20:46:00,77.7,65.0,30.06,ESE,115,0.3,1.1,65,0.00,SCT,SKC,0.11,WeatherDisplay:10.37,2013-09-06 01:46:00,
2013-09-05 20:51:00,77.7,65.4,30.07,ESE,114,0.0,1.1,66,0.00,SCT,SKC,0.11,WeatherDisplay:10.37,2013-09-06 01:51:00,
2013-09-05 20:56:00,77.5,65.2,30.07,ESE,114,0.0,0.0,66,0.00,SCT,SKC,0.11,WeatherDisplay:10.37,2013-09-06 01:56:00,
2013-09-05 21:01:00,77.4,65.1,30.06,SE,135,0.6,1.1,66,0.00,SCT,SKC,0.11,WeatherDisplay:10.37,2013-09-06 02:01:00,
2013-09-05 21:06:00,77.2,65.4,30.06,SE,135,0.0,0.0,67,0.00,SCT,SKC,0.11,WeatherDisplay:10.37,2013-09-06 02:06:00,
2013-09-05 21:11:00,76.9,65.5,30.06,SE,142,0.7,2.3,68,0.00,SCT,SKC,0.11,WeatherDisplay:10.37,2013-09-06 02:11:00,
2013-09-05 21:16:00,76.7,65.3,30.05,SSE,167,1.6,3.5,68,0.00,SCT,SKC,0.11,WeatherDisplay:10.37,2013-09-06 02:16:00,
2013-09-05 21:21:00,76.8,65.0,30.05,ESE,113,2.2,4.0,67,0.00,-RA,SKC,0.11,WeatherDisplay:10.37,2013-09-06 02:21:00,
2013-09-05 21:26:00,77.0,65.2,30.05,SSE,153,1.8,5.8,67,0.00,-RA,SKC,0.11,WeatherDisplay:10.37,2013-09-06 02:26:00,
2013-09-05 21:31:00,77.1,65.3,30.05,East,98,2.7,3.5,67,0.00,-RA,SKC,0.11,WeatherDisplay:10.37,2013-09-06 02:31:00,
2013-09-05 21:36:00,77.1,64.9,30.06,South,186,1.7,3.5,66,0.00,-RA,SKC,0.11,WeatherDisplay:10.37,2013-09-06 02:36:00,
2013-09-05 21:41:00,77.1,65.3,30.06,SSE,148,1.9,3.5,67,0.00,-RA,SKC,0.11,WeatherDisplay:10.37,2013-09-06 02:41:00,
2013-09-05 21:46:00,77.0,65.2,30.06,SE,142,0.0,3.5,67,0.00,-RA,SKC,0.11,WeatherDisplay:10.37,2013-09-06 02:46:00,
2013-09-05 21:52:00,77.0,65.2,30.05,SE,143,2.6,3.5,67,0.00,-RA,SKC,0.11,WeatherDisplay:10.37,2013-09-06 02:52:00,
2013-09-05 21:57:00,77.0,65.2,30.04,SSW,207,4.2,5.8,67,0.00,-RA,SKC,0.11,WeatherDisplay:10.37,2013-09-06 02:57:00,
2013-09-05 22:02:00,77.0,65.2,30.03,SSE,152,4.2,8.1,67,0.00,-RA,SKC,0.11,WeatherDisplay:10.37,2013-09-06 03:02:00,
2013-09-05 22:07:00,76.9,65.1,30.03,South,188,3.2,5.0,67,0.00,-RA,SKC,0.11,WeatherDisplay:10.37,2013-09-06 03:07:00,
2013-09-05 22:12:00,76.8,64.6,30.03,SE,145,4.9,7.0,66,0.00,-RA,SKC,0.11,WeatherDisplay:10.37,2013-09-06 03:12:00,
2013-09-05 22:17:00,76.8,64.6,30.03,ESE,105,1.6,4.6,66,0.00,-RA,SKC,0.11,WeatherDisplay:10.37,2013-09-06 03:17:00,
2013-09-05 22:22:00,76.8,64.6,30.03,SW,222,3.2,6.9,66,0.00,SCT,SKC,0.11,WeatherDisplay:10.37,2013-09-06 03:22:00,
2013-09-05 22:27:00,76.7,64.5,30.03,SSW,201,3.6,5.8,66,0.00,SCT,SKC,0.11,WeatherDisplay:10.37,2013-09-06 03:27:00,
2013-09-05 22:32:00,76.6,64.4,30.04,SSW,205,4.1,5.8,66,0.00,SCT,SKC,0.11,WeatherDisplay:10.37,2013-09-06 03:32:00,
2013-09-05 22:37:00,76.6,64.8,30.04,SW,220,4.6,6.0,67,0.00,SCT,SKC,0.11,WeatherDisplay:10.37,2013-09-06 03:37:00,
2013-09-05 22:42:00,76.5,64.7,30.04,South,186,1.7,8.1,67,0.00,CLR,SKC,0.11,WeatherDisplay:10.37,2013-09-06 03:42:00,
2013-09-05 22:47:00,76.5,64.7,30.05,SE,141,0.2,2.0,67,0.00,CLR,SKC,0.11,WeatherDisplay:10.37,2013-09-06 03:47:00,
2013-09-05 22:52:00,76.4,64.6,30.04,SSE,157,3.1,3.5,67,0.00,CLR,SKC,0.11,WeatherDisplay:10.37,2013-09-06 03:52:00,
2013-09-05 22:57:00,76.2,64.4,30.04,SW,215,3.4,6.9,67,0.00,CLR,SKC,0.11,WeatherDisplay:10.37,2013-09-06 03:57:00,
2013-09-05 23:01:00,76.3,64.5,30.04,SSE,153,2.3,4.6,67,0.00,CLR,SKC,0.11,WeatherDisplay:10.37,2013-09-06 04:01:00,
2013-09-05 23:02:00,76.3,64.5,30.04,SSE,158,2.9,4.6,67,0.00,CLR,SKC,0.11,WeatherDisplay:10.37,2013-09-06 04:02:00,
2013-09-05 23:07:00,76.3,64.5,30.03,SE,145,3.2,7.0,67,0.00,CLR,SKC,0.11,WeatherDisplay:10.37,2013-09-06 04:07:00,
2013-09-05 23:12:00,76.3,64.5,30.03,SE,136,3.7,5.8,67,0.00,CLR,SKC,0.11,WeatherDisplay:10.37,2013-09-06 04:12:00,
2013-09-05 23:17:00,76.2,64.4,30.03,SE,133,3.2,4.6,67,0.00,CLR,SKC,0.11,WeatherDisplay:10.37,2013-09-06 04:17:00,
2013-09-05 23:22:00,76.1,64.3,30.03,SE,131,2.0,3.5,67,0.00,CLR,SKC,0.11,WeatherDisplay:10.37,2013-09-06 04:22:00,
2013-09-05 23:27:00,76.0,64.7,30.03,ESE,113,1.8,3.5,68,0.00,CLR,SKC,0.11,WeatherDisplay:10.37,2013-09-06 04:27:00,
2013-09-05 23:32:00,75.9,64.6,30.04,SE,133,1.2,2.3,68,0.00,CLR,SKC,0.11,WeatherDisplay:10.37,2013-09-06 04:32:00,
2013-09-05 23:37:00,75.7,64.8,30.04,ESE,121,0.0,0.0,69,0.00,CLR,SKC,0.11,WeatherDisplay:10.37,2013-09-06 04:37:00,
2013-09-05 23:42:00,75.6,64.7,30.04,SE,133,0.9,1.1,69,0.00,CLR,SKC,0.11,WeatherDisplay:10.37,2013-09-06 04:42:00,
2013-09-05 23:47:00,75.5,64.6,30.04,SSE,157,1.4,3.5,69,0.00,CLR,SKC,0.11,WeatherDisplay:10.37,2013-09-06 04:47:00,
2013-09-05 23:52:00,75.4,64.5,30.04,SSE,155,1.1,1.1,69,0.00,CLR,SKC,0.11,WeatherDisplay:10.37,2013-09-06 04:52:00,
2013-09-05 23:57:00,75.3,64.4,30.04,SSW,197,1.1,3.5,69,0.00,CLR,SKC,0.11,WeatherDisplay:10.37,2013-09-06 04:57:00,